createdAt,value
2022-08-22T00:01:51.104Z,97732.72
2022-08-22T00:03:52.452Z,97737.06
2022-08-22T00:05:53.847Z,97733.75
2022-08-22T00:07:55.223Z,97740.59
2022-08-22T00:09:57.388Z,97731.25
2022-08-22T00:11:59.264Z,97740.53
2022-08-22T00:14:01.985Z,97747.22
2022-08-22T00:16:03.436Z,97736.19
2022-08-22T00:18:05.574Z,97522.91
2022-08-22T00:20:07.216Z,97738.06
2022-08-22T00:22:09.161Z,97739.69
2022-08-22T00:24:10.500Z,97741.50
2022-08-22T00:26:11.819Z,97733.03
2022-08-22T00:28:13.554Z,97740.63
2022-08-22T00:30:15.523Z,97733.75
2022-08-22T00:32:16.903Z,97738.06
2022-08-22T00:34:18.273Z,97733.81
2022-08-22T00:36:20.053Z,97733.84
2022-08-22T00:38:22.034Z,97736.44
2022-08-22T00:40:23.437Z,97736.59
2022-08-22T00:42:29.498Z,97731.34
2022-08-22T00:44:33.279Z,97738.00
2022-08-22T00:46:34.627Z,97736.38
2022-08-22T00:48:35.947Z,97729.56
2022-08-22T00:50:37.324Z,97731.25
2022-08-22T00:52:38.683Z,97728.63
2022-08-22T00:54:40.022Z,97732.22
2022-08-22T00:56:41.422Z,97727.16
2022-08-22T00:58:46.548Z,97733.22
2022-08-22T01:00:47.875Z,97739.22
2022-08-22T01:02:52.429Z,97737.47
2022-08-22T01:04:54.128Z,97734.72
2022-08-22T01:06:55.426Z,97734.03
2022-08-22T01:08:56.793Z,97735.75
2022-08-22T01:10:58.334Z,97739.31
2022-08-22T01:12:59.643Z,97735.00
2022-08-22T01:15:00.964Z,97730.50
2022-08-22T01:17:02.345Z,97727.22
2022-08-22T01:19:03.690Z,97718.78
2022-08-22T01:21:04.994Z,97726.47
2022-08-22T01:23:06.310Z,97728.31
2022-08-22T01:25:22.448Z,97735.16
2022-08-22T01:27:27.345Z,97726.78
2022-08-22T01:29:29.762Z,97737.78
2022-08-22T01:31:31.803Z,97732.72
2022-08-22T01:33:33.191Z,97736.06
2022-08-22T01:35:34.507Z,97729.31
2022-08-22T01:37:35.863Z,97731.88
2022-08-22T01:39:44.930Z,97735.28
2022-08-22T01:41:46.255Z,97733.59
2022-08-22T01:43:59.253Z,97734.44
2022-08-22T01:46:01.606Z,97740.47
2022-08-22T01:48:02.923Z,97733.66
2022-08-22T01:50:04.223Z,97739.66
2022-08-22T01:52:05.591Z,97742.19
2022-08-22T01:54:06.903Z,97730.41
2022-08-22T01:56:08.215Z,97732.78
2022-08-22T01:58:09.515Z,97732.66
2022-08-22T02:00:10.854Z,97725.84
2022-08-22T02:02:12.149Z,97734.28
2022-08-22T02:04:13.473Z,97729.16
2022-08-22T02:06:14.818Z,97730.00
2022-08-22T02:08:16.118Z,97729.31
2022-08-22T02:10:17.502Z,97720.97
2022-08-22T02:12:22.118Z,97728.00
2022-08-22T02:14:23.560Z,97726.53
2022-08-22T02:16:24.890Z,97721.25
2022-08-22T02:18:26.191Z,97727.16
2022-08-22T02:20:27.511Z,97728.00
2022-08-22T02:22:28.805Z,97727.78
2022-08-22T02:24:30.105Z,97726.22
2022-08-22T02:26:31.443Z,97731.19
2022-08-22T02:28:33.010Z,97723.44
2022-08-22T02:30:34.359Z,97731.16
2022-08-22T02:32:35.661Z,97726.00
2022-08-22T02:34:37.302Z,97726.06
2022-08-22T02:36:38.775Z,97734.66
2022-08-22T02:38:40.126Z,97732.81
2022-08-22T02:40:41.443Z,97728.53
2022-08-22T02:42:43.224Z,97722.03
2022-08-22T02:44:44.835Z,97727.78
2022-08-22T02:46:47.030Z,97719.69
2022-08-22T02:48:49.206Z,97725.75
2022-08-22T02:50:50.501Z,97721.69
2022-08-22T02:52:54.018Z,97721.69
2022-08-22T02:54:55.351Z,97721.28
2022-08-22T02:56:56.710Z,97717.97
2022-08-22T02:58:59.986Z,97715.41
2022-08-22T03:01:01.570Z,97720.56
2022-08-22T03:03:02.919Z,97723.19
2022-08-22T03:05:04.222Z,97724.09
2022-08-22T03:07:05.755Z,97719.03
2022-08-22T03:09:07.307Z,97724.97
2022-08-22T03:11:08.643Z,97713.91
2022-08-22T03:13:09.954Z,97722.47
2022-08-22T03:15:11.266Z,97713.13
2022-08-22T03:17:12.586Z,97719.06
2022-08-22T03:19:18.870Z,97716.53
2022-08-22T03:21:20.394Z,97712.28
2022-08-22T03:23:21.696Z,97720.78
2022-08-22T03:25:23.044Z,97719.94
2022-08-22T03:27:32.757Z,97725.91
2022-08-22T03:29:35.071Z,97721.66
2022-08-22T03:31:36.409Z,97723.41
2022-08-22T03:33:37.715Z,97714.91
2022-08-22T03:35:39.058Z,97726.78
2022-08-22T03:37:43.580Z,97720.00
2022-08-22T03:39:44.979Z,97729.38
2022-08-22T03:41:46.858Z,97727.69
2022-08-22T03:43:48.186Z,97730.22
2022-08-22T03:45:49.482Z,97726.00
2022-08-22T03:47:50.791Z,97728.56
2022-08-22T03:49:54.060Z,97727.72
2022-08-22T03:51:57.043Z,97731.09
2022-08-22T03:53:58.338Z,97727.72
2022-08-22T03:55:59.651Z,97726.91
2022-08-22T03:58:01.008Z,97728.56
2022-08-22T04:00:02.831Z,97726.06
2022-08-22T04:02:04.161Z,97728.59
2022-08-22T04:04:25.561Z,97727.75
2022-08-22T04:06:29.066Z,97731.16
2022-08-22T04:08:31.796Z,97730.31
2022-08-22T04:10:33.634Z,97731.16
2022-08-22T04:12:34.930Z,97737.13
2022-08-22T04:14:36.363Z,97735.44
2022-08-22T04:16:37.733Z,97738.84
2022-08-22T04:18:39.029Z,97582.13
2022-08-22T04:20:41.390Z,97733.72
2022-08-22T04:22:42.733Z,97732.88
2022-08-22T04:24:44.087Z,97737.16
2022-08-22T04:26:50.268Z,97739.69
2022-08-22T04:28:51.567Z,97736.31
2022-08-22T04:30:53.046Z,97740.53
2022-08-22T04:32:54.358Z,97743.97
2022-08-22T04:34:55.902Z,97751.63
2022-08-22T04:36:57.848Z,97748.22
2022-08-22T04:38:59.186Z,97750.78
2022-08-22T04:41:04.416Z,97747.38
2022-08-22T04:43:06.587Z,97743.09
2022-08-22T04:45:08.076Z,97743.16
2022-08-22T04:47:09.727Z,97750.00
2022-08-22T04:49:11.501Z,97744.88
2022-08-22T04:51:12.897Z,97749.09
2022-08-22T04:53:14.254Z,97746.59
2022-08-22T04:55:15.643Z,97755.03
2022-08-22T04:57:16.967Z,97748.28
2022-08-22T04:59:18.296Z,97754.19
2022-08-22T05:01:19.727Z,97753.38
2022-08-22T05:03:21.090Z,97753.38
2022-08-22T05:05:22.395Z,97763.59
2022-08-22T05:07:23.703Z,97762.78
2022-08-22T05:09:25.030Z,97768.72
2022-08-22T05:11:26.375Z,97766.19
2022-08-22T05:13:27.681Z,97772.16
2022-08-22T05:15:29.030Z,97773.00
2022-08-22T05:17:30.321Z,97771.31
2022-08-22T05:19:32.325Z,97767.88
2022-08-22T05:21:33.840Z,97772.16
2022-08-22T05:23:35.207Z,97780.66
2022-08-22T05:25:36.923Z,97778.13
2022-08-22T05:27:38.239Z,97778.09
2022-08-22T05:29:39.533Z,97778.97
2022-08-22T05:31:40.851Z,97773.88
2022-08-22T05:33:42.162Z,97784.09
2022-08-22T05:35:47.258Z,97778.97
2022-08-22T05:37:50.977Z,97778.09
2022-08-22T05:39:52.321Z,97781.53
2022-08-22T05:41:53.678Z,97787.47
2022-08-22T05:43:55.287Z,97777.25
2022-08-22T05:45:57.172Z,97788.31
2022-08-22T05:47:59.057Z,97787.47
2022-08-22T05:50:01.794Z,97776.41
2022-08-22T05:52:03.159Z,97778.97
2022-08-22T05:54:05.151Z,97786.66
2022-08-22T05:56:06.598Z,97642.63
2022-08-22T05:58:08.135Z,97789.19
2022-08-22T06:00:12.239Z,97797.72
2022-08-22T06:02:13.670Z,97797.72
2022-08-22T06:04:15.026Z,97790.06
2022-08-22T06:06:16.354Z,97799.41
2022-08-22T06:08:17.691Z,97790.91
2022-08-22T06:10:19.027Z,97790.06
2022-08-22T06:12:22.093Z,97801.97
2022-08-22T06:14:24.893Z,97795.19
2022-08-22T06:16:26.319Z,97796.88
2022-08-22T06:18:27.631Z,97798.59
2022-08-22T06:20:29.037Z,97801.97
2022-08-22T06:22:30.403Z,97796.88
2022-08-22T06:24:31.783Z,97801.97
2022-08-22T06:26:34.623Z,97801.13
2022-08-22T06:28:36.666Z,97801.97
2022-08-22T06:30:38.049Z,97799.41
2022-08-22T06:32:59.523Z,97770.31
2022-08-22T06:35:00.721Z,97815.59
2022-08-22T06:37:03.510Z,97803.69
2022-08-22T06:39:05.638Z,97807.94
2022-08-22T06:41:06.997Z,97807.09
2022-08-22T06:43:08.818Z,97809.66
2022-08-22T06:45:10.143Z,97809.66
2022-08-22T06:47:11.467Z,97807.09
2022-08-22T06:49:12.784Z,97807.94
2022-08-22T06:51:14.153Z,97807.09
2022-08-22T06:53:15.450Z,97807.94
2022-08-22T06:55:16.794Z,97811.34
2022-08-22T06:57:18.089Z,97811.34
2022-08-22T06:59:20.763Z,97804.53
2022-08-22T07:01:22.110Z,97807.09
2022-08-22T07:03:23.463Z,97813.06
2022-08-22T07:05:25.150Z,97813.06
2022-08-22T07:07:26.550Z,97811.34
2022-08-22T07:09:28.163Z,97808.78
2022-08-22T07:11:29.517Z,97819.00
2022-08-22T07:13:30.810Z,97814.72
2022-08-22T07:15:36.581Z,97812.19
2022-08-22T07:17:40.575Z,97808.78
2022-08-22T07:19:42.047Z,97821.56
2022-08-22T07:21:43.381Z,97814.72
2022-08-22T07:23:47.953Z,97811.34
2022-08-22T07:25:49.273Z,97810.44
2022-08-22T07:27:50.609Z,97815.59
2022-08-22T07:29:51.951Z,97810.50
2022-08-22T07:31:53.265Z,97816.44
2022-08-22T07:33:54.650Z,97824.13
2022-08-22T07:35:56.010Z,97819.84
2022-08-22T07:37:57.831Z,97821.56
2022-08-22T07:39:59.331Z,97821.50
2022-08-22T07:42:01.827Z,97821.50
2022-08-22T07:44:03.147Z,97824.06
2022-08-22T07:46:04.462Z,97818.94
2022-08-22T07:48:05.791Z,97825.75
2022-08-22T07:50:08.047Z,97818.91
2022-08-22T07:52:09.367Z,97823.13
2022-08-22T07:54:10.658Z,97823.13
2022-08-22T07:56:11.999Z,97811.19
2022-08-22T07:58:13.579Z,97823.91
2022-08-22T08:00:14.902Z,97821.34
2022-08-22T08:02:16.211Z,97821.28
2022-08-22T08:04:17.601Z,97817.91
2022-08-22T08:06:18.898Z,97817.00
2022-08-22T08:08:20.530Z,97812.75
2022-08-22T08:10:21.843Z,97813.59
2022-08-22T08:12:23.159Z,97814.44
2022-08-22T08:14:24.495Z,97818.69
2022-08-22T08:16:26.732Z,97815.31
2022-08-22T08:18:29.379Z,97823.81
2022-08-22T08:20:30.744Z,97818.69
2022-08-22T08:22:32.050Z,97822.13
2022-08-22T08:24:40.487Z,97828.13
2022-08-22T08:27:05.738Z,97827.25
2022-08-22T08:29:07.372Z,97827.28
2022-08-22T08:31:08.708Z,97828.94
2022-08-22T08:33:24.228Z,97830.72
2022-08-22T08:35:27.975Z,97833.28
2022-08-22T08:37:29.281Z,97831.56
2022-08-22T08:39:35.263Z,97830.72
2022-08-22T08:41:37.002Z,97829.00
2022-08-22T08:43:38.326Z,97834.97
2022-08-22T08:45:39.667Z,97834.13
2022-08-22T08:47:41.033Z,97829.03
2022-08-22T08:49:42.778Z,97833.34
2022-08-22T08:51:44.282Z,97828.22
2022-08-22T08:53:46.450Z,97819.66
2022-08-22T08:55:47.773Z,97829.88
2022-08-22T08:57:49.427Z,97832.41
2022-08-22T08:59:50.751Z,97826.44
2022-08-22T09:01:53.323Z,97826.47
2022-08-22T09:03:54.690Z,97828.22
2022-08-22T09:05:56.019Z,97822.25
2022-08-22T09:07:57.903Z,97827.38
2022-08-22T09:09:59.783Z,97829.09
2022-08-22T09:12:01.877Z,97829.09
2022-08-22T09:14:03.330Z,97823.13
2022-08-22T09:16:05.510Z,97825.69
2022-08-22T09:18:07.071Z,97824.03
2022-08-22T09:20:17.685Z,97831.69
2022-08-22T09:22:20.927Z,97825.78
2022-08-22T09:26:43.551Z,97830.94
2022-08-22T09:28:47.666Z,97835.22
2022-08-22T09:30:49.001Z,97835.22
2022-08-22T09:32:55.771Z,97834.34
2022-08-22T09:34:57.417Z,97836.06
2022-08-22T09:37:00.903Z,97837.75
2022-08-22T09:39:02.290Z,97836.91
2022-08-22T09:41:03.630Z,97839.47
2022-08-22T09:43:06.310Z,97837.75
2022-08-22T09:45:08.075Z,97845.41
2022-08-22T09:47:10.705Z,97852.19
2022-08-22T09:49:12.243Z,97841.88
2022-08-22T09:51:31.803Z,97845.28
2022-08-22T09:53:34.636Z,97840.09
2022-08-22T09:55:35.958Z,97841.78
2022-08-22T09:57:37.312Z,97836.69
2022-08-22T09:59:39.003Z,97840.94
2022-08-22T10:01:42.227Z,97840.09
2022-08-22T10:03:43.774Z,97840.94
2022-08-22T10:05:46.376Z,97849.50
2022-08-22T10:07:47.888Z,97844.38
2022-08-22T10:09:54.941Z,97844.38
2022-08-22T10:11:57.024Z,97847.78
2022-08-22T10:14:01.250Z,97843.50
2022-08-22T10:16:03.126Z,97846.94
2022-08-22T10:18:04.559Z,97855.50
2022-08-22T10:20:06.303Z,97852.09
2022-08-22T10:22:07.666Z,97870.06
2022-08-22T10:24:08.975Z,97859.81
2022-08-22T10:26:10.727Z,97855.56
2022-08-22T10:28:24.055Z,97856.44
2022-08-22T10:30:29.903Z,97866.59
2022-08-22T10:32:31.627Z,97869.16
2022-08-22T10:34:33.058Z,97869.06
2022-08-22T10:36:34.368Z,97863.97
2022-08-22T10:38:46.456Z,97865.66
2022-08-22T10:40:48.383Z,97868.19
2022-08-22T10:42:49.722Z,97869.03
2022-08-22T10:44:55.135Z,97878.44
2022-08-22T10:46:57.124Z,97875.03
2022-08-22T10:48:58.547Z,97869.03
2022-08-22T10:50:59.847Z,97869.06
2022-08-22T10:53:28.947Z,97877.59
2022-08-22T10:55:31.083Z,97881.00
2022-08-22T10:57:33.203Z,97881.00
2022-08-22T10:59:34.613Z,97881.91
2022-08-22T11:01:41.938Z,97879.34
2022-08-22T11:03:43.786Z,97877.66
2022-08-22T11:05:50.019Z,97876.75
2022-08-22T11:07:52.147Z,97878.44
2022-08-22T11:09:55.200Z,97874.19
2022-08-22T11:11:56.554Z,97869.91
2022-08-22T11:13:57.861Z,97870.75
2022-08-22T11:15:59.462Z,97866.50
2022-08-22T11:18:00.766Z,97862.19
2022-08-22T11:20:07.162Z,97869.03
2022-08-22T11:22:10.434Z,97867.34
2022-08-22T11:24:17.164Z,97868.19
2022-08-22T11:26:30.053Z,97863.97
2022-08-22T11:28:37.115Z,97867.34
2022-08-22T11:30:44.487Z,97869.06
2022-08-22T11:32:46.626Z,97871.63
2022-08-22T11:34:47.966Z,97874.19
2022-08-22T11:36:51.402Z,97873.34
2022-08-22T11:38:53.287Z,97865.66
2022-08-22T11:40:54.643Z,97867.38
2022-08-22T11:42:55.964Z,97866.50
2022-08-22T11:45:00.425Z,97868.22
2022-08-22T11:47:01.738Z,97875.91
2022-08-22T11:49:03.076Z,97877.59
2022-08-22T11:51:04.423Z,97882.69
2022-08-22T11:53:14.984Z,97875.91
2022-08-22T11:55:16.905Z,97880.16
2022-08-22T11:57:19.035Z,97876.75
2022-08-22T11:59:20.334Z,97872.50
2022-08-22T12:01:23.930Z,97874.25
2022-08-22T12:03:25.311Z,97875.06
2022-08-22T12:05:27.260Z,97873.41
2022-08-22T12:07:28.646Z,97873.41
2022-08-22T12:09:30.071Z,97873.41
2022-08-22T12:11:31.371Z,97866.59
2022-08-22T12:13:35.215Z,97873.41
2022-08-22T12:15:36.971Z,97878.50
2022-08-22T12:17:55.877Z,97875.16
2022-08-22T12:20:18.750Z,97875.16
2022-08-22T12:22:20.183Z,97874.31
2022-08-22T12:24:21.588Z,97864.09
2022-08-22T12:26:22.899Z,97860.69
2022-08-22T12:28:25.402Z,97869.22
2022-08-22T12:30:27.365Z,97867.50
2022-08-22T12:32:34.130Z,97862.47
2022-08-22T12:34:35.616Z,97865.00
2022-08-22T12:36:37.372Z,97861.63
2022-08-22T12:38:38.731Z,97861.63
2022-08-22T12:40:40.073Z,97858.22
2022-08-22T12:42:46.203Z,97851.25
2022-08-22T12:44:47.628Z,97863.03
2022-08-22T12:48:52.332Z,97857.50
2022-08-22T12:50:53.727Z,97852.06
2022-08-22T12:52:55.127Z,97856.03
2022-08-22T12:54:56.443Z,97836.28
2022-08-22T12:56:57.803Z,97846.25
2022-08-22T12:58:59.118Z,97841.63
2022-08-22T13:01:00.497Z,97845.03
2022-08-22T13:03:02.072Z,97839.84
2022-08-22T13:05:03.568Z,97841.09
2022-08-22T13:07:06.715Z,97847.06
2022-08-22T13:09:09.991Z,97842.78
2022-08-22T13:11:12.428Z,97839.22
2022-08-22T13:13:31.677Z,97846.81
2022-08-22T13:15:38.717Z,97840.94
2022-08-22T13:17:43.305Z,97841.91
2022-08-22T13:19:44.631Z,97836.59
2022-08-22T13:21:45.968Z,97828.75
2022-08-22T13:23:50.781Z,97839.78
2022-08-22T13:25:52.215Z,97835.84
2022-08-22T13:27:53.549Z,97833.19
2022-08-22T13:29:54.857Z,97836.56
2022-08-22T13:32:00.390Z,97830.84
2022-08-22T13:34:01.934Z,97832.19
2022-08-22T13:36:03.399Z,97833.81
2022-08-22T13:38:04.878Z,97826.78
2022-08-22T13:40:06.340Z,97824.31
2022-08-22T13:42:14.614Z,97827.72
2022-08-22T13:44:28.871Z,97826.69
2022-08-22T13:46:30.410Z,97820.72
2022-08-22T13:48:37.135Z,97825.59
2022-08-22T13:50:53.451Z,97820.47
2022-08-22T13:52:55.465Z,97825.53
2022-08-22T13:54:56.921Z,97822.78
2022-08-22T13:56:58.759Z,97822.88
2022-08-22T13:59:00.123Z,97820.50
2022-08-22T14:01:01.435Z,97811.06
2022-08-22T14:03:05.407Z,97807.94
2022-08-22T14:05:07.076Z,97812.69
2022-08-22T14:07:08.403Z,97807.19
2022-08-22T14:09:09.743Z,97808.22
2022-08-22T14:11:12.221Z,97809.75
2022-08-22T14:13:13.527Z,97804.56
2022-08-22T14:15:15.273Z,97810.63
2022-08-22T14:17:16.696Z,97807.91
2022-08-22T14:19:19.094Z,97818.94
2022-08-22T14:21:20.472Z,97813.81
2022-08-22T14:23:21.787Z,97807.91
2022-08-22T14:25:25.284Z,97806.75
2022-08-22T14:27:26.954Z,97811.94
2022-08-22T14:29:29.151Z,97650.66
2022-08-22T14:31:33.247Z,97802.16
2022-08-22T14:33:35.418Z,97799.59
2022-08-22T14:35:37.917Z,97808.34
2022-08-22T14:37:40.100Z,97795.44
2022-08-22T14:39:42.861Z,97794.94
2022-08-22T14:41:56.330Z,97794.44
2022-08-22T14:43:59.886Z,97792.63
2022-08-22T14:46:02.127Z,97796.81
2022-08-22T14:48:30.196Z,97793.47
2022-08-22T14:50:24.962Z,97787.28
2022-08-22T14:52:26.502Z,97804.50
2022-08-22T14:54:30.987Z,97793.00
2022-08-22T14:56:32.707Z,97793.94
2022-08-22T14:58:34.018Z,97793.56
2022-08-22T15:00:35.382Z,97803.00
2022-08-22T15:02:36.686Z,97795.09
2022-08-22T15:04:38.155Z,97797.53
2022-08-22T15:06:47.636Z,97798.34
2022-08-22T15:08:49.709Z,97794.72
2022-08-22T15:10:51.071Z,97796.47
2022-08-22T15:12:53.888Z,97794.91
2022-08-22T15:14:55.439Z,97796.31
2022-08-22T15:16:57.011Z,97791.00
2022-08-22T15:18:58.535Z,97793.00
2022-08-22T15:20:59.834Z,97794.47
2022-08-22T15:23:02.130Z,97794.81
2022-08-22T15:25:03.724Z,97797.06
2022-08-22T15:27:06.789Z,97791.28
2022-08-22T15:29:08.543Z,97795.63
2022-08-22T15:31:10.443Z,97792.22
2022-08-22T15:33:11.851Z,97796.56
2022-08-22T15:35:13.819Z,97801.03
2022-08-22T15:37:16.462Z,97792.63
2022-08-22T15:39:18.339Z,97801.84
2022-08-22T15:41:19.646Z,97791.38
2022-08-22T15:43:23.424Z,97794.69
2022-08-22T15:45:25.138Z,97793.97
2022-08-22T15:47:28.502Z,97795.94
2022-08-22T15:49:32.975Z,97793.00
2022-08-22T15:51:35.515Z,97795.78
2022-08-22T15:53:38.806Z,97784.44
2022-08-22T15:55:42.327Z,97789.56
2022-08-22T15:57:43.670Z,97789.56
2022-08-22T15:59:54.267Z,97778.16
2022-08-22T16:01:55.919Z,97792.84
2022-08-22T16:03:57.382Z,97783.47
2022-08-22T16:05:58.877Z,97787.72
2022-08-22T16:08:00.230Z,97784.22
2022-08-22T16:10:01.591Z,97786.78
2022-08-22T16:12:02.923Z,97777.63
2022-08-22T16:14:04.232Z,97774.91
2022-08-22T16:16:08.414Z,97782.38
2022-08-22T16:18:09.710Z,97775.75
2022-08-22T16:20:19.666Z,97772.88
2022-08-22T16:22:21.198Z,97769.25
2022-08-22T16:24:22.574Z,97773.50
2022-08-22T16:26:23.886Z,97770.94
2022-08-22T16:28:41.543Z,97773.44
2022-08-22T16:30:46.486Z,97784.44
2022-08-22T16:32:47.795Z,97780.28
2022-08-22T16:34:50.302Z,97778.56
2022-08-22T16:36:51.669Z,97781.97
2022-08-22T16:38:53.030Z,97788.66
2022-08-22T16:40:54.383Z,97792.06
2022-08-22T16:42:55.701Z,97782.75
2022-08-22T16:44:57.007Z,97786.06
2022-08-22T16:46:58.321Z,97790.44
2022-08-22T16:48:59.624Z,97801.63
2022-08-22T16:51:00.922Z,97796.69
2022-08-22T16:53:02.299Z,97800.53
2022-08-22T16:55:03.647Z,97799.59
2022-08-22T16:57:05.602Z,97802.59
2022-08-22T16:59:22.532Z,97802.41
2022-08-22T17:01:25.056Z,97807.28
2022-08-22T17:03:26.390Z,97807.13
2022-08-22T17:05:29.494Z,97804.47
2022-08-22T17:07:31.774Z,97805.44
2022-08-22T17:09:33.083Z,97803.56
2022-08-22T17:11:34.386Z,97797.59
2022-08-22T17:13:35.758Z,97807.06
2022-08-22T17:15:37.066Z,97802.19
2022-08-22T17:17:38.430Z,97797.81
2022-08-22T17:19:40.076Z,97808.91
2022-08-22T17:21:41.591Z,97807.97
2022-08-22T17:23:52.986Z,97805.69
2022-08-22T17:25:54.350Z,97809.72
2022-08-22T17:27:55.704Z,97809.56
2022-08-22T17:29:57.121Z,97804.25
2022-08-22T17:31:58.595Z,97814.63
2022-08-22T17:33:59.931Z,97810.22
2022-08-22T17:36:01.350Z,97801.56
2022-08-22T17:38:02.703Z,97812.03
2022-08-22T17:40:04.383Z,97812.78
2022-08-22T17:42:05.760Z,97811.91
2022-08-22T17:44:07.072Z,97818.88
2022-08-22T17:46:13.566Z,97818.16
2022-08-22T17:48:15.058Z,97813.38
2022-08-22T17:50:16.354Z,97810.41
2022-08-22T17:52:17.661Z,97820.41
2022-08-22T17:54:19.487Z,97816.09
2022-08-22T17:56:20.890Z,97819.34
2022-08-22T17:58:37.860Z,97817.75
2022-08-22T18:00:43.562Z,97820.31
2022-08-22T18:02:45.471Z,97826.47
2022-08-22T18:04:47.560Z,97817.63
2022-08-22T18:06:49.035Z,97822.88
2022-08-22T18:09:15.230Z,97824.47
2022-08-22T18:11:16.663Z,97838.25
2022-08-22T18:13:17.976Z,97837.44
2022-08-22T18:15:19.279Z,97830.31
2022-08-22T18:17:20.666Z,97840.34
2022-08-22T18:19:22.009Z,97825.19
2022-08-22T18:21:23.308Z,97835.34
2022-08-22T18:23:36.256Z,97830.03
2022-08-22T18:25:42.034Z,97836.06
2022-08-22T18:27:43.362Z,97836.19
2022-08-22T18:29:44.667Z,97835.09
2022-08-22T18:31:45.975Z,97825.78
2022-08-22T18:33:47.324Z,97831.88
2022-08-22T18:35:53.889Z,97837.91
2022-08-22T18:37:56.352Z,97838.56
2022-08-22T18:40:00.808Z,97838.84
2022-08-22T18:42:02.169Z,97838.59
2022-08-22T18:44:04.858Z,97841.19
2022-08-22T18:46:06.243Z,97837.44
2022-08-22T18:48:07.622Z,97837.25
2022-08-22T18:50:08.930Z,97837.00
2022-08-22T18:52:10.841Z,97836.94
2022-08-22T18:54:12.450Z,97837.97
2022-08-22T18:56:13.803Z,97839.50
2022-08-22T18:58:15.560Z,97836.19
2022-08-22T19:00:17.080Z,97835.28
2022-08-22T19:02:18.496Z,97840.44
2022-08-22T19:04:20.840Z,97839.50
2022-08-22T19:06:24.620Z,97837.84
2022-08-22T19:08:25.927Z,97841.94
2022-08-22T19:10:28.364Z,97836.06
2022-08-22T19:12:29.690Z,97837.91
2022-08-22T19:14:31.660Z,97837.91
2022-08-22T19:16:33.031Z,97834.44
2022-08-22T19:18:36.206Z,97836.06
2022-08-22T19:21:03.658Z,97839.41
2022-08-22T19:23:04.963Z,97841.13
2022-08-22T19:25:08.857Z,97839.50
2022-08-22T19:27:11.683Z,97829.19
2022-08-22T19:29:13.111Z,97830.03
2022-08-22T19:31:16.560Z,97823.97
2022-08-22T19:33:19.868Z,97832.53
2022-08-22T19:35:29.234Z,97834.16
2022-08-22T19:37:34.082Z,97826.69
2022-08-22T19:39:35.656Z,97833.50
2022-08-22T19:41:37.251Z,97830.53
2022-08-22T19:43:38.678Z,97831.66
2022-08-22T19:45:39.987Z,97833.53
2022-08-22T19:47:41.296Z,97843.91
2022-08-22T19:49:42.634Z,97839.69
2022-08-22T19:51:45.958Z,97834.50
2022-08-22T19:53:47.307Z,97837.28
2022-08-22T19:55:48.617Z,97839.19
2022-08-22T19:57:54.205Z,97837.97
2022-08-22T20:00:00.123Z,97842.47
2022-08-22T20:02:01.565Z,97851.88
2022-08-22T20:04:03.674Z,97856.06
2022-08-22T20:06:06.990Z,97855.03
2022-08-22T20:08:12.041Z,97854.88
2022-08-22T20:10:13.359Z,97860.13
2022-08-22T20:12:15.696Z,97847.56
2022-08-22T20:14:17.498Z,97855.03
2022-08-22T20:16:23.787Z,97853.00
2022-08-22T20:20:46.430Z,97842.69
2022-08-22T20:22:47.734Z,97842.78
2022-08-22T20:24:49.235Z,97842.06
2022-08-22T20:27:12.135Z,97849.03
2022-08-22T20:29:12.006Z,97845.78
2022-08-22T20:31:13.694Z,97844.16
2022-08-22T20:33:17.475Z,97838.28
2022-08-22T20:35:18.777Z,97834.97
2022-08-22T20:37:36.007Z,97840.19
2022-08-22T20:39:44.372Z,97841.09
2022-08-22T20:41:45.727Z,97842.03
2022-08-22T20:43:47.310Z,97847.22
2022-08-22T20:45:48.731Z,97840.47
2022-08-22T20:47:50.495Z,97843.91
2022-08-22T20:49:51.907Z,97841.41
2022-08-22T20:51:53.273Z,97838.09
2022-08-22T20:53:54.681Z,97837.28
2022-08-22T20:55:56.379Z,97837.34
2022-08-22T20:57:57.838Z,97840.00
2022-08-22T20:59:59.185Z,97832.41
2022-08-22T21:02:00.579Z,97834.13
2022-08-22T21:04:02.000Z,97832.47
2022-08-22T21:06:03.339Z,97827.44
2022-08-22T21:08:05.102Z,97836.84
2022-08-22T21:10:24.918Z,97827.56
2022-08-22T21:12:27.750Z,97822.50
2022-08-22T21:14:29.046Z,97827.66
2022-08-22T21:16:31.638Z,97818.28
2022-08-22T21:18:33.155Z,97816.63
2022-08-22T21:20:34.488Z,97820.91
2022-08-22T21:22:35.848Z,97814.94
2022-08-22T21:24:37.199Z,97814.16
2022-08-22T21:26:38.502Z,97814.16
2022-08-22T21:28:39.837Z,97807.41
2022-08-22T21:30:41.175Z,97827.06
2022-08-22T21:32:53.628Z,97820.25
2022-08-22T21:34:56.981Z,97820.25
2022-08-22T21:36:58.284Z,97815.19
2022-08-22T21:38:59.605Z,97816.06
2022-08-22T21:41:01.142Z,97820.38
2022-08-22T21:43:02.504Z,97816.13
2022-08-22T21:45:03.899Z,97812.72
2022-08-22T21:47:05.244Z,97817.81
2022-08-22T21:49:07.192Z,97819.53
2022-08-22T21:51:08.552Z,97814.44
2022-08-22T21:53:11.831Z,97815.34
2022-08-22T21:55:13.443Z,97829.88
2022-08-22T21:57:14.783Z,97819.63
2022-08-22T21:59:16.091Z,97823.06
2022-08-22T22:01:17.501Z,97822.28
2022-08-22T22:03:20.005Z,97821.50
2022-08-22T22:05:21.319Z,97816.28
2022-08-22T22:07:22.667Z,97814.44
2022-08-22T22:09:23.987Z,97811.78
2022-08-22T22:11:25.419Z,97811.78
2022-08-22T22:13:27.162Z,97805.03
2022-08-22T22:15:31.850Z,97804.28
2022-08-22T22:17:33.299Z,97811.09
2022-08-22T22:19:34.651Z,97811.19
2022-08-22T22:21:36.022Z,97803.53
2022-08-22T22:23:37.340Z,97801.03
2022-08-22T22:25:42.006Z,97805.38
2022-08-22T22:27:43.755Z,97798.56
2022-08-22T22:29:45.065Z,97795.91
2022-08-22T22:31:46.463Z,97793.34
2022-08-22T22:33:47.814Z,97794.22
2022-08-22T22:35:49.139Z,97795.06
2022-08-22T22:37:50.478Z,97790.78
2022-08-22T22:39:51.842Z,97795.94
2022-08-22T22:41:53.552Z,97804.44
2022-08-22T22:43:54.886Z,97803.53
2022-08-22T22:45:56.449Z,97794.13
2022-08-22T22:47:58.171Z,97790.72
2022-08-22T22:49:59.604Z,97795.84
2022-08-22T22:52:00.910Z,97795.84
2022-08-22T22:54:02.297Z,97795.00
2022-08-22T22:56:03.598Z,97799.25
2022-08-22T22:58:04.939Z,97802.69
2022-08-22T23:00:06.335Z,97786.50
2022-08-22T23:02:07.663Z,97791.63
2022-08-22T23:04:09.022Z,97796.75
2022-08-22T23:06:10.319Z,97783.13
2022-08-22T23:08:11.627Z,97786.53
2022-08-22T23:10:12.927Z,97777.13
2022-08-22T23:12:14.266Z,97787.44
2022-08-22T23:14:15.651Z,97784.91
2022-08-22T23:16:17.060Z,97785.00
2022-08-22T23:18:18.416Z,97780.78
2022-08-22T23:20:22.353Z,97780.00
2022-08-22T23:22:23.674Z,97785.09
2022-08-22T23:24:25.122Z,97781.75
2022-08-22T23:26:26.507Z,97781.75
2022-08-22T23:28:27.919Z,97780.91
2022-08-22T23:30:30.303Z,97781.78
2022-08-22T23:32:31.623Z,97775.81
2022-08-22T23:34:32.995Z,97775.63
2022-08-22T23:36:34.298Z,97776.25
2022-08-22T23:38:35.607Z,97777.88
2022-08-22T23:40:36.937Z,97776.13
2022-08-22T23:42:38.457Z,97778.69
2022-08-22T23:44:39.841Z,97776.97
2022-08-22T23:46:41.163Z,97771.00
2022-08-22T23:48:42.632Z,97775.31
2022-08-22T23:50:44.047Z,97772.78
2022-08-22T23:52:45.376Z,97778.81
2022-08-22T23:54:46.791Z,97775.41
2022-08-22T23:56:51.551Z,97774.47
2022-08-22T23:58:53.350Z,97776.97
